Taylorville, Pennsylvania
Current Conditions -  °F | °C
As of 11:35 AM on Thursday 30 Oct 2014 (Local Time) from KHZL Reporting Station
Overcast Overcast  
Wind Chill: 41°   Ceiling: 2900
Heat Index: 45°   Visibility: 10mi
Dew Point: 36°   Wind: 6mph
Humidity: 71%   Direction: 290°WNW
Pressure: 30.05"   Gusts: NA
Location:  40.7564°N, 76.3531°W
Report Text: KHZL 301535Z AUTO 29005KT 10SM SCT023 BKN029 OVC034 07/02 A3005 RMK AO2
Loading
Personal Weather Stations






























Interactive Weather Map
Tropical Storm Tracking
New forecast layout! Learn more

10-Day Weather Forecast

Advertisements
Track Severe Weather on mobile